Time;durP1;ratioP1;P1;durP2;ratioP2;P2;SDS_P1;SDS_P2;PMS_P1;PMS_P2;Temp;Humidity;BMP_temperature;BMP_pressure;BME280_temperature;BME280_humidity;BME280_pressure;Samples;Min_cycle;Max_cycle;Signal;HPM_P1;HPM_P2
2023/03/09 00:00:27;;;;;;;;;;;3.00;99.90;;;;;;5097661;28;19908;-87
2023/03/09 00:02:53;;;;;;;;;;;3.00;99.90;;;;;;5081176;28;19904;-87
2023/03/09 00:05:20;;;;;;;;;;;3.00;99.90;;;;;;5080736;28;20338;-87
2023/03/09 00:07:46;;;;;;;;;;;3.00;99.90;;;;;;5097906;28;19908;-87
2023/03/09 00:10:12;;;;;;;;;;;3.00;99.90;;;;;;5081480;28;20409;-86
2023/03/09 00:12:38;;;;;;;;;;;3.00;99.90;;;;;;5080734;28;19908;-86
2023/03/09 00:15:04;;;;;;;;;;;2.90;99.90;;;;;;5115206;28;19984;-86
2023/03/09 00:17:29;;;;;;;;;;;2.90;99.90;;;;;;5100543;28;19908;-87
2023/03/09 00:20:15;;;;;;;;;;;2.90;99.90;;;;;;5099865;28;19937;-86
2023/03/09 00:22:41;;;;;;;;;;;2.90;99.90;;;;;;5101575;28;20344;-85
2023/03/09 00:25:07;;;;;;;;;;;2.90;99.90;;;;;;5101511;28;19904;-86
2023/03/09 00:27:33;;;;;;;;;;;2.90;99.90;;;;;;5100817;28;19914;-88
2023/03/09 00:29:58;;;;;;;;;;;2.90;99.90;;;;;;5115570;28;19998;-86
2023/03/09 00:32:24;;;;;;;;;;;2.90;99.90;;;;;;5081982;28;19947;-86
2023/03/09 00:34:49;;;;;;;;;;;2.90;99.90;;;;;;5065534;28;19930;-88
2023/03/09 00:37:15;;;;;;;;;;;2.80;99.90;;;;;;5099956;28;19908;-86
2023/03/09 00:39:40;;;;;;;;;;;2.80;99.90;;;;;;5066212;28;19916;-86
2023/03/09 00:42:06;;;;;;;;;;;2.80;99.90;;;;;;5116693;28;20356;-87
2023/03/09 00:44:32;;;;;;;;;;;2.80;99.90;;;;;;5082706;28;19989;-86
2023/03/09 00:46:57;;;;;;;;;;;2.80;99.90;;;;;;5082353;28;20245;-86
2023/03/09 00:49:23;;;;;;;;;;;2.80;99.90;;;;;;5099068;28;19915;-86
2023/03/09 00:51:48;;;;;;;;;;;2.80;99.90;;;;;;5082882;28;19908;-86
2023/03/09 00:54:14;;;;;;;;;;;2.80;99.90;;;;;;5098159;28;19908;-85
2023/03/09 00:56:41;;;;;;;;;;;2.80;99.90;;;;;;5064990;28;19998;-86
2023/03/09 00:59:06;;;;;;;;;;;2.80;99.90;;;;;;5081085;28;19912;-86
2023/03/09 01:01:32;;;;;;;;;;;2.80;99.90;;;;;;5080933;28;20360;-86
2023/03/09 01:03:57;;;;;;;;;;;2.80;99.90;;;;;;5098377;28;20015;-85
2023/03/09 01:06:23;;;;;;;;;;;2.80;99.90;;;;;;5114868;28;19908;-86
2023/03/09 01:08:49;;;;;;;;;;;2.80;99.90;;;;;;5080431;28;19904;-86
2023/03/09 01:11:15;;;;;;;;;;;2.80;99.90;;;;;;5064004;28;19908;-86
2023/03/09 01:13:41;;;;;;;;;;;2.80;99.90;;;;;;5098043;28;19907;-86
2023/03/09 01:16:07;;;;;;;;;;;2.80;99.90;;;;;;5080736;28;20255;-86
2023/03/09 01:18:33;;;;;;;;;;;2.80;99.90;;;;;;5084165;28;19951;-86
2023/03/09 01:20:59;;;;;;;;;;;2.80;99.90;;;;;;5117895;28;19909;-94
2023/03/09 01:23:24;;;;;;;;;;;2.80;99.90;;;;;;5101954;28;19955;-87
2023/03/09 01:25:50;;;;;;;;;;;2.80;99.90;;;;;;5132435;28;19912;-87
2023/03/09 01:28:16;;;;;;;;;;;2.80;99.90;;;;;;5110723;28;19912;-88
2023/03/09 01:30:41;;;;;;;;;;;2.80;99.90;;;;;;5102062;28;19892;-85
2023/03/09 01:33:07;;;;;;;;;;;2.90;99.90;;;;;;5113370;28;19903;-86
2023/03/09 01:35:32;;;;;;;;;;;2.80;99.90;;;;;;5064616;28;19964;-86
2023/03/09 01:37:58;;;;;;;;;;;2.80;99.90;;;;;;5057162;28;19912;-85
2023/03/09 01:40:25;;;;;;;;;;;2.80;99.90;;;;;;5040278;28;19916;-87
2023/03/09 01:42:55;;;;;;;;;;;2.80;99.90;;;;;;5057053;28;19909;-86
2023/03/09 01:45:20;;;;;;;;;;;2.80;99.90;;;;;;5056792;28;19904;-88
2023/03/09 01:47:46;;;;;;;;;;;2.80;99.90;;;;;;5056929;28;20275;-87
2023/03/09 01:50:16;;;;;;;;;;;2.90;99.90;;;;;;5057452;28;19927;-86
2023/03/09 01:52:43;;;;;;;;;;;2.80;99.90;;;;;;5056849;28;19958;-87
2023/03/09 01:55:10;;;;;;;;;;;2.90;99.90;;;;;;5056755;28;20351;-87
2023/03/09 01:57:36;;;;;;;;;;;2.80;99.90;;;;;;5074725;28;19905;-87
2023/03/09 02:00:07;;;;;;;;;;;2.80;99.90;;;;;;5054597;28;19965;-87
2023/03/09 02:02:35;;;;;;;;;;;2.80;99.90;;;;;;5056957;28;19981;-86
2023/03/09 02:05:03;;;;;;;;;;;2.80;99.90;;;;;;5056404;28;19910;-88
2023/03/09 02:07:30;;;;;;;;;;;2.80;99.90;;;;;;5056738;28;19908;-86
2023/03/09 02:09:59;;;;;;;;;;;2.90;99.90;;;;;;5074290;28;19919;-87
2023/03/09 02:12:26;;;;;;;;;;;2.90;99.90;;;;;;5056546;28;19912;-87
2023/03/09 02:14:52;;;;;;;;;;;2.80;99.90;;;;;;5056726;28;19909;-86
2023/03/09 02:17:18;;;;;;;;;;;2.90;99.90;;;;;;5056159;28;19916;-87
2023/03/09 02:19:43;;;;;;;;;;;2.90;99.90;;;;;;5042752;28;19963;-86
2023/03/09 02:22:09;;;;;;;;;;;2.80;99.90;;;;;;5036150;28;19905;-87
2023/03/09 02:24:54;;;;;;;;;;;2.80;99.90;;;;;;5036589;28;19905;-87
2023/03/09 02:27:21;;;;;;;;;;;2.90;99.90;;;;;;5054194;28;20348;-87
2023/03/09 02:29:46;;;;;;;;;;;2.90;99.90;;;;;;5036662;28;19909;-86
2023/03/09 02:32:12;;;;;;;;;;;2.80;99.90;;;;;;5036894;28;20368;-86
2023/03/09 02:34:38;;;;;;;;;;;2.80;99.90;;;;;;5053956;28;19917;-86
2023/03/09 02:37:04;;;;;;;;;;;2.90;99.90;;;;;;5053019;28;19916;-89
2023/03/09 02:39:39;;;;;;;;;;;2.80;99.90;;;;;;5069439;28;19920;-87
2023/03/09 02:42:05;;;;;;;;;;;2.80;99.90;;;;;;5069830;28;19920;-93
2023/03/09 02:44:31;;;;;;;;;;;2.80;99.90;;;;;;5036585;28;19909;-87
2023/03/09 02:46:59;;;;;;;;;;;2.80;99.90;;;;;;5069881;28;19905;-86
2023/03/09 02:49:24;;;;;;;;;;;2.80;99.90;;;;;;5069996;28;19905;-87
2023/03/09 02:51:50;;;;;;;;;;;2.80;99.90;;;;;;5036414;28;19915;-87
2023/03/09 02:54:15;;;;;;;;;;;2.80;99.90;;;;;;5069795;28;19954;-87
2023/03/09 02:56:41;;;;;;;;;;;2.90;99.90;;;;;;5020069;28;19908;-87
2023/03/09 02:59:07;;;;;;;;;;;2.80;99.90;;;;;;5069226;28;19923;-87
2023/03/09 03:01:32;;;;;;;;;;;2.90;99.90;;;;;;5019766;28;20014;-86
2023/03/09 03:03:58;;;;;;;;;;;2.90;99.90;;;;;;5036094;28;19904;-87
2023/03/09 03:06:23;;;;;;;;;;;2.80;99.90;;;;;;5035991;28;19912;-87
2023/03/09 03:08:49;;;;;;;;;;;2.90;99.90;;;;;;5036463;28;20256;-86
2023/03/09 03:11:15;;;;;;;;;;;2.90;99.90;;;;;;5019636;28;19915;-87
2023/03/09 03:13:41;;;;;;;;;;;2.90;99.90;;;;;;5069409;28;19905;-86
2023/03/09 03:16:06;;;;;;;;;;;2.80;99.90;;;;;;5036080;28;19905;-86
2023/03/09 03:18:32;;;;;;;;;;;2.90;99.90;;;;;;5069290;28;19968;-86
2023/03/09 03:21:03;;;;;;;;;;;2.80;99.90;;;;;;5069908;28;20064;-86
2023/03/09 03:23:29;;;;;;;;;;;2.80;99.90;;;;;;5020276;28;20323;-86
2023/03/09 03:25:54;;;;;;;;;;;2.90;99.90;;;;;;5035794;28;19904;-86
2023/03/09 03:28:20;;;;;;;;;;;2.80;99.90;;;;;;5053427;28;19991;-86
2023/03/09 03:30:52;;;;;;;;;;;2.90;99.90;;;;;;5019616;28;19924;-86
2023/03/09 03:33:17;;;;;;;;;;;2.90;99.90;;;;;;5072810;28;20359;-87
2023/03/09 03:35:43;;;;;;;;;;;2.90;99.90;;;;;;5090078;28;19954;-87
2023/03/09 03:38:08;;;;;;;;;;;2.90;99.90;;;;;;5077972;28;19934;-86
2023/03/09 03:40:34;;;;;;;;;;;2.90;99.90;;;;;;5059215;28;20354;-87
2023/03/09 03:43:00;;;;;;;;;;;2.90;99.90;;;;;;5042896;28;19944;-87
2023/03/09 03:45:25;;;;;;;;;;;2.90;99.90;;;;;;5059755;28;19937;-88
2023/03/09 03:47:51;;;;;;;;;;;2.90;99.90;;;;;;5059672;28;20001;-89
2023/03/09 03:50:16;;;;;;;;;;;2.90;99.90;;;;;;5093075;28;19905;-88
2023/03/09 03:52:42;;;;;;;;;;;2.90;99.90;;;;;;5059948;28;19915;-87
2023/03/09 03:55:08;;;;;;;;;;;2.90;99.90;;;;;;5059743;28;20248;-87
2023/03/09 03:57:33;;;;;;;;;;;2.90;99.90;;;;;;5094656;28;19919;-88
2023/03/09 03:59:59;;;;;;;;;;;2.90;99.90;;;;;;5043984;28;19916;-89
2023/03/09 04:02:25;;;;;;;;;;;2.90;99.90;;;;;;5066493;28;19970;-88
2023/03/09 04:04:50;;;;;;;;;;;2.90;99.90;;;;;;5069801;28;19916;-87
2023/03/09 04:07:16;;;;;;;;;;;2.90;99.90;;;;;;5079274;28;19950;-87
2023/03/09 04:09:42;;;;;;;;;;;2.90;99.90;;;;;;5079607;28;20006;-88
2023/03/09 04:12:07;;;;;;;;;;;2.90;99.90;;;;;;5079121;28;20364;-88
2023/03/09 04:14:33;;;;;;;;;;;2.90;99.90;;;;;;5079360;28;19904;-88
2023/03/09 04:16:59;;;;;;;;;;;2.90;99.90;;;;;;5079096;28;19954;-87
2023/03/09 04:19:24;;;;;;;;;;;2.90;99.90;;;;;;5079243;28;19912;-88
2023/03/09 04:21:50;;;;;;;;;;;2.90;99.90;;;;;;5096935;28;19919;-89
2023/03/09 04:24:15;;;;;;;;;;;2.90;99.90;;;;;;5095496;28;19904;-88
2023/03/09 04:26:41;;;;;;;;;;;2.90;99.90;;;;;;5079437;28;19914;-87
2023/03/09 04:29:07;;;;;;;;;;;2.90;99.90;;;;;;5097441;28;19904;-86
2023/03/09 04:31:32;;;;;;;;;;;2.90;99.90;;;;;;5095915;28;19947;-87
2023/03/09 04:33:58;;;;;;;;;;;2.90;99.90;;;;;;5084323;28;19904;-88
2023/03/09 04:36:27;;;;;;;;;;;2.90;99.90;;;;;;5102372;28;19919;-91
2023/03/09 04:38:54;;;;;;;;;;;2.90;99.90;;;;;;5102998;28;19923;-86
2023/03/09 04:41:20;;;;;;;;;;;2.80;99.90;;;;;;5102781;28;19892;-89
2023/03/09 04:43:46;;;;;;;;;;;2.80;99.90;;;;;;5101678;28;19914;-88
2023/03/09 04:46:14;;;;;;;;;;;2.80;99.90;;;;;;5102530;28;19908;-88
2023/03/09 04:48:40;;;;;;;;;;;2.80;99.90;;;;;;5119498;28;19908;-88
2023/03/09 04:51:05;;;;;;;;;;;2.90;99.90;;;;;;5107200;28;19958;-88
2023/03/09 04:56:25;;;;;;;;;;;2.80;99.90;;;;;;5094685;28;19908;-89
2023/03/09 04:58:51;;;;;;;;;;;2.80;99.90;;;;;;5078540;28;20275;-88
2023/03/09 05:01:16;;;;;;;;;;;2.90;99.90;;;;;;5078739;28;19904;-87
2023/03/09 05:03:42;;;;;;;;;;;2.80;99.90;;;;;;5078309;28;20080;-87
2023/03/09 05:06:07;;;;;;;;;;;2.90;99.90;;;;;;5078670;28;19908;-88
2023/03/09 05:08:33;;;;;;;;;;;2.90;99.90;;;;;;5078453;28;19904;-90
2023/03/09 05:10:58;;;;;;;;;;;2.80;99.90;;;;;;5078314;28;19910;-88
2023/03/09 05:13:26;;;;;;;;;;;2.90;99.90;;;;;;5096948;28;19908;-89
2023/03/09 05:15:52;;;;;;;;;;;2.90;99.90;;;;;;5078451;28;19911;-89
2023/03/09 05:18:18;;;;;;;;;;;2.80;99.90;;;;;;5078782;28;20401;-88
2023/03/09 05:20:43;;;;;;;;;;;2.90;99.90;;;;;;5078213;28;19915;-87
2023/03/09 05:23:09;;;;;;;;;;;2.90;99.90;;;;;;5078192;28;19957;-88
2023/03/09 05:25:37;;;;;;;;;;;2.90;99.90;;;;;;5096083;28;19907;-90
2023/03/09 05:28:04;;;;;;;;;;;2.90;99.90;;;;;;5078001;28;20367;-87
2023/03/09 05:30:30;;;;;;;;;;;2.90;99.90;;;;;;5078128;28;19908;-86
2023/03/09 05:32:56;;;;;;;;;;;2.90;99.90;;;;;;5095789;28;19946;-88
2023/03/09 05:35:21;;;;;;;;;;;2.90;99.90;;;;;;5074190;28;19920;-89
2023/03/09 05:37:47;;;;;;;;;;;2.90;99.90;;;;;;5075352;28;19905;-88
2023/03/09 05:40:13;;;;;;;;;;;2.90;99.90;;;;;;5075885;28;20002;-87
2023/03/09 05:42:39;;;;;;;;;;;2.90;99.90;;;;;;5074891;28;19909;-91
2023/03/09 05:45:05;;;;;;;;;;;2.90;99.90;;;;;;5074555;28;19905;-88
2023/03/09 05:47:33;;;;;;;;;;;2.90;99.90;;;;;;5074699;28;19958;-88
2023/03/09 05:49:58;;;;;;;;;;;2.90;99.90;;;;;;5077599;28;19912;-87
2023/03/09 05:52:24;;;;;;;;;;;2.90;99.90;;;;;;5075187;28;19908;-86
2023/03/09 05:54:49;;;;;;;;;;;2.90;99.90;;;;;;5076115;28;19915;-87
2023/03/09 05:57:15;;;;;;;;;;;2.80;99.90;;;;;;5058117;28;19931;-88
2023/03/09 05:59:41;;;;;;;;;;;2.80;99.90;;;;;;5061262;28;20592;-87
2023/03/09 06:02:06;;;;;;;;;;;2.80;99.90;;;;;;5076339;28;19905;-86
2023/03/09 06:04:34;;;;;;;;;;;2.90;99.90;;;;;;5074142;28;19909;-86
2023/03/09 06:07:00;;;;;;;;;;;2.90;99.90;;;;;;5073283;28;20010;-87
2023/03/09 06:09:25;;;;;;;;;;;2.90;99.90;;;;;;5056970;28;19975;-85
2023/03/09 06:11:51;;;;;;;;;;;2.90;99.90;;;;;;5080158;28;19904;-85
2023/03/09 06:14:17;;;;;;;;;;;2.90;99.90;;;;;;5073367;28;19955;-86
2023/03/09 06:16:42;;;;;;;;;;;2.90;99.90;;;;;;5056048;28;19912;-86
2023/03/09 06:19:08;;;;;;;;;;;2.90;99.90;;;;;;5056100;28;19913;-85
2023/03/09 06:21:34;;;;;;;;;;;2.90;99.90;;;;;;5074467;28;19904;-86
2023/03/09 06:23:59;;;;;;;;;;;2.90;99.90;;;;;;5074508;28;19904;-86
2023/03/09 06:26:25;;;;;;;;;;;2.90;99.90;;;;;;5056333;28;19915;-86
2023/03/09 06:28:50;;;;;;;;;;;2.90;99.90;;;;;;5055994;28;19913;-86
2023/03/09 06:31:16;;;;;;;;;;;2.90;99.90;;;;;;5039752;28;20412;-85
2023/03/09 06:33:43;;;;;;;;;;;2.80;99.90;;;;;;5058160;28;20395;-86
2023/03/09 06:36:12;;;;;;;;;;;2.90;99.90;;;;;;5079511;28;19952;-86
2023/03/09 06:38:38;;;;;;;;;;;2.90;99.90;;;;;;5077189;28;19912;-86
2023/03/09 06:41:03;;;;;;;;;;;2.90;99.90;;;;;;5096639;28;19904;-86
2023/03/09 06:43:29;;;;;;;;;;;2.90;99.90;;;;;;5077993;28;19998;-87
2023/03/09 06:45:54;;;;;;;;;;;2.90;99.90;;;;;;5095127;28;19908;-86
2023/03/09 06:48:20;;;;;;;;;;;2.90;99.90;;;;;;5077589;28;19926;-86
2023/03/09 06:50:46;;;;;;;;;;;3.00;99.90;;;;;;5077896;28;19971;-87
2023/03/09 06:53:12;;;;;;;;;;;3.00;99.90;;;;;;5077411;28;20390;-86
2023/03/09 06:55:39;;;;;;;;;;;3.00;99.90;;;;;;5077569;28;19904;-87
2023/03/09 06:58:04;;;;;;;;;;;2.90;99.90;;;;;;5077294;28;19904;-86
2023/03/09 07:00:30;;;;;;;;;;;3.00;99.90;;;;;;5076833;28;19919;-86
2023/03/09 07:02:56;;;;;;;;;;;3.00;99.90;;;;;;5061644;28;19919;-85
2023/03/09 07:05:23;;;;;;;;;;;3.00;99.90;;;;;;5067919;28;19908;-86
2023/03/09 07:07:49;;;;;;;;;;;3.00;99.90;;;;;;5081328;28;20038;-86
2023/03/09 07:10:15;;;;;;;;;;;3.00;99.90;;;;;;5062593;28;19943;-86
2023/03/09 07:12:43;;;;;;;;;;;3.00;99.90;;;;;;5079933;28;19912;-86
2023/03/09 07:15:11;;;;;;;;;;;3.00;99.90;;;;;;5065861;28;19916;-86
2023/03/09 07:17:36;;;;;;;;;;;3.00;99.90;;;;;;5080203;28;20003;-87
2023/03/09 07:20:02;;;;;;;;;;;3.00;99.90;;;;;;5063833;28;19970;-86
2023/03/09 07:22:27;;;;;;;;;;;3.00;99.90;;;;;;5080797;28;19907;-86
2023/03/09 07:24:53;;;;;;;;;;;3.00;99.90;;;;;;5080956;28;19987;-87
2023/03/09 07:27:20;;;;;;;;;;;3.10;99.90;;;;;;5080669;28;19983;-86
2023/03/09 07:29:46;;;;;;;;;;;3.00;99.90;;;;;;5081521;28;19904;-86
2023/03/09 07:32:12;;;;;;;;;;;3.10;99.90;;;;;;5114981;28;19904;-86
2023/03/09 07:34:37;;;;;;;;;;;3.10;99.90;;;;;;5113694;28;19960;-87
2023/03/09 07:37:03;;;;;;;;;;;3.10;99.90;;;;;;5080425;28;19904;-87
2023/03/09 07:39:29;;;;;;;;;;;3.10;99.90;;;;;;5079858;28;19919;-87
2023/03/09 07:41:54;;;;;;;;;;;3.10;99.90;;;;;;5080561;28;19907;-86
2023/03/09 07:44:20;;;;;;;;;;;3.20;99.90;;;;;;5079691;28;20366;-87
2023/03/09 07:46:45;;;;;;;;;;;3.10;99.90;;;;;;5097321;28;19908;-87
2023/03/09 07:49:11;;;;;;;;;;;3.20;99.90;;;;;;5134150;28;19943;-86
2023/03/09 07:51:37;;;;;;;;;;;3.20;99.90;;;;;;5137607;28;19892;-85
2023/03/09 07:54:06;;;;;;;;;;;3.20;99.90;;;;;;5121294;28;19910;-88
2023/03/09 07:56:32;;;;;;;;;;;3.20;99.90;;;;;;5103168;28;19963;-86
2023/03/09 07:58:58;;;;;;;;;;;3.20;99.90;;;;;;5103119;28;19923;-88
2023/03/09 08:01:23;;;;;;;;;;;3.20;99.90;;;;;;5119988;28;19892;-88
2023/03/09 08:03:49;;;;;;;;;;;3.20;99.90;;;;;;5091625;28;19908;-87
2023/03/09 08:06:15;;;;;;;;;;;3.20;99.90;;;;;;5098615;28;19958;-86
2023/03/09 08:08:40;;;;;;;;;;;3.20;99.90;;;;;;5079806;28;20233;-88
2023/03/09 08:11:07;;;;;;;;;;;3.20;99.90;;;;;;5115096;28;19915;-86
2023/03/09 08:13:33;;;;;;;;;;;3.30;99.90;;;;;;5079938;28;19912;-86
2023/03/09 08:16:00;;;;;;;;;;;3.30;99.90;;;;;;5079584;28;19938;-87
2023/03/09 08:18:26;;;;;;;;;;;3.30;99.90;;;;;;5097008;28;19911;-86
2023/03/09 08:20:51;;;;;;;;;;;3.30;99.90;;;;;;5080202;28;19904;-87
2023/03/09 08:23:17;;;;;;;;;;;3.30;99.90;;;;;;5113300;28;19908;-86
2023/03/09 08:25:43;;;;;;;;;;;3.30;99.90;;;;;;5097426;28;20037;-87
2023/03/09 08:28:10;;;;;;;;;;;3.30;99.90;;;;;;5097837;28;19911;-86
2023/03/09 08:30:39;;;;;;;;;;;3.40;99.90;;;;;;5113559;28;20011;-87
2023/03/09 08:33:05;;;;;;;;;;;3.40;99.90;;;;;;5080732;28;19982;-89
2023/03/09 08:35:32;;;;;;;;;;;3.40;99.90;;;;;;5047988;28;20280;-86
2023/03/09 08:37:58;;;;;;;;;;;3.40;99.90;;;;;;5039459;28;20381;-88
2023/03/09 08:40:26;;;;;;;;;;;3.40;99.90;;;;;;5039126;28;20281;-89
2023/03/09 08:42:52;;;;;;;;;;;3.50;99.90;;;;;;5038744;28;19909;-84
2023/03/09 08:45:18;;;;;;;;;;;3.50;99.90;;;;;;5041166;28;19920;-86
2023/03/09 08:47:44;;;;;;;;;;;3.50;99.90;;;;;;5043204;28;19913;-85
2023/03/09 08:50:10;;;;;;;;;;;3.50;99.90;;;;;;5071863;28;19911;-86
2023/03/09 08:52:37;;;;;;;;;;;3.60;99.90;;;;;;5044926;28;19948;-84
2023/03/09 08:55:05;;;;;;;;;;;3.60;99.90;;;;;;5075163;28;19908;-86
2023/03/09 08:57:31;;;;;;;;;;;3.60;99.90;;;;;;5058388;28;19904;-86
2023/03/09 08:59:57;;;;;;;;;;;3.60;99.90;;;;;;5077022;28;19918;-85
2023/03/09 09:02:23;;;;;;;;;;;3.60;99.90;;;;;;5073867;28;19991;-84
2023/03/09 09:04:49;;;;;;;;;;;3.60;99.90;;;;;;5070527;28;20375;-88
2023/03/09 09:07:14;;;;;;;;;;;3.60;99.90;;;;;;5072023;28;19911;-84
2023/03/09 09:09:41;;;;;;;;;;;3.60;99.90;;;;;;5058645;28;19911;-85
2023/03/09 09:12:06;;;;;;;;;;;3.70;99.90;;;;;;5058405;28;19948;-87
2023/03/09 09:14:32;;;;;;;;;;;3.70;99.90;;;;;;5092076;28;19916;-84
2023/03/09 09:16:58;;;;;;;;;;;3.70;99.90;;;;;;5091856;28;20019;-86
2023/03/09 09:19:23;;;;;;;;;;;3.70;99.90;;;;;;5092292;28;19912;-85
2023/03/09 09:21:51;;;;;;;;;;;3.70;99.90;;;;;;5091753;28;19909;-86
2023/03/09 09:24:17;;;;;;;;;;;3.80;99.90;;;;;;5057754;28;19979;-85
2023/03/09 09:26:42;;;;;;;;;;;3.70;99.90;;;;;;5075135;28;19912;-86
2023/03/09 09:29:08;;;;;;;;;;;3.70;99.90;;;;;;5057151;28;19908;-86
2023/03/09 09:31:35;;;;;;;;;;;3.70;99.90;;;;;;5071998;28;19919;-86
2023/03/09 09:34:00;;;;;;;;;;;3.80;99.90;;;;;;5108105;28;20359;-86
2023/03/09 09:36:26;;;;;;;;;;;3.80;99.90;;;;;;5075217;28;19909;-85
2023/03/09 09:38:52;;;;;;;;;;;3.80;99.90;;;;;;5058714;28;20017;-86
2023/03/09 09:41:21;;;;;;;;;;;3.80;99.90;;;;;;5058319;28;19905;-86
2023/03/09 09:43:53;;;;;;;;;;;3.90;99.90;;;;;;5057364;28;19912;-89
2023/03/09 09:46:19;;;;;;;;;;;3.90;99.90;;;;;;5057559;28;19904;-86
2023/03/09 09:48:46;;;;;;;;;;;3.90;99.90;;;;;;5055335;28;19908;-91
2023/03/09 09:51:40;;;;;;;;;;;3.90;99.90;;;;;;5048828;28;19991;-86
2023/03/09 09:54:05;;;;;;;;;;;3.90;99.90;;;;;;5051531;28;20138;-87
2023/03/09 09:56:41;;;;;;;;;;;3.90;99.90;;;;;;5072245;28;19911;-90
2023/03/09 09:59:11;;;;;;;;;;;3.90;99.90;;;;;;5056647;28;19932;-86
2023/03/09 10:01:50;;;;;;;;;;;4.00;99.90;;;;;;5047677;28;19905;-85
2023/03/09 10:04:18;;;;;;;;;;;4.00;99.90;;;;;;5085850;28;20017;-86
2023/03/09 10:06:46;;;;;;;;;;;4.00;99.90;;;;;;5046089;28;19919;-86
2023/03/09 10:09:32;;;;;;;;;;;4.00;99.90;;;;;;5050586;28;19936;-86
2023/03/09 10:12:02;;;;;;;;;;;4.00;99.90;;;;;;5047095;28;19905;-86
2023/03/09 10:14:27;;;;;;;;;;;4.00;99.90;;;;;;5055577;28;20316;-87
2023/03/09 10:17:04;;;;;;;;;;;4.00;99.90;;;;;;5073224;28;19952;-87
2023/03/09 10:19:35;;;;;;;;;;;4.00;99.90;;;;;;5065224;28;19912;-86
2023/03/09 10:22:03;;;;;;;;;;;4.00;99.90;;;;;;5065234;28;19905;-86
2023/03/09 10:24:31;;;;;;;;;;;4.00;99.90;;;;;;5043740;28;19905;-88
2023/03/09 10:26:57;;;;;;;;;;;4.00;99.90;;;;;;5045319;28;19905;-88
2023/03/09 10:29:41;;;;;;;;;;;4.10;99.90;;;;;;5053927;28;19931;-87
2023/03/09 10:32:12;;;;;;;;;;;4.00;99.90;;;;;;5070253;28;20261;-86
2023/03/09 10:34:51;;;;;;;;;;;4.10;99.90;;;;;;5050379;28;20301;-87
2023/03/09 10:37:20;;;;;;;;;;;4.00;99.90;;;;;;5076009;28;19904;-86
2023/03/09 10:39:46;;;;;;;;;;;4.10;99.90;;;;;;5065076;28;20364;-86
2023/03/09 10:42:18;;;;;;;;;;;4.10;99.90;;;;;;5070773;28;19990;-87
2023/03/09 10:44:48;;;;;;;;;;;4.00;99.90;;;;;;5069758;28;19905;-86
2023/03/09 10:47:14;;;;;;;;;;;4.00;99.90;;;;;;5068182;28;19953;-86
2023/03/09 10:49:39;;;;;;;;;;;4.10;99.90;;;;;;5070808;28;20310;-88
2023/03/09 10:52:18;;;;;;;;;;;4.10;99.90;;;;;;5076527;28;19975;-88
2023/03/09 10:54:43;;;;;;;;;;;4.10;99.90;;;;;;5075981;28;19904;-87
2023/03/09 10:57:37;;;;;;;;;;;4.10;99.90;;;;;;5076473;28;19911;-87
2023/03/09 11:00:06;;;;;;;;;;;4.20;99.90;;;;;;5103473;28;19940;-91
2023/03/09 11:02:36;;;;;;;;;;;4.20;99.90;;;;;;5114908;28;19915;-86
2023/03/09 11:05:22;;;;;;;;;;;4.20;99.90;;;;;;5098279;28;19897;-95
2023/03/09 11:07:52;;;;;;;;;;;4.20;99.90;;;;;;5098968;28;19919;-96
2023/03/09 11:10:25;;;;;;;;;;;4.30;99.90;;;;;;5094112;28;19908;-87
2023/03/09 11:12:52;;;;;;;;;;;4.30;99.90;;;;;;5117855;28;19908;-90
2023/03/09 11:15:18;;;;;;;;;;;4.30;99.90;;;;;;5070464;28;19961;-85
2023/03/09 11:17:45;;;;;;;;;;;4.30;99.90;;;;;;5069324;28;19904;-86
2023/03/09 11:20:24;;;;;;;;;;;4.30;99.90;;;;;;5072777;28;19912;-89
2023/03/09 11:22:54;;;;;;;;;;;4.30;99.90;;;;;;5070773;28;19953;-87
2023/03/09 11:25:39;;;;;;;;;;;4.30;99.90;;;;;;5104716;28;19904;-88
2023/03/09 11:28:25;;;;;;;;;;;4.30;99.90;;;;;;5075623;28;19904;-88
2023/03/09 11:30:54;;;;;;;;;;;4.30;99.90;;;;;;5067382;28;19908;-88
2023/03/09 11:33:20;;;;;;;;;;;4.40;99.90;;;;;;5079250;28;19973;-88
2023/03/09 11:36:00;;;;;;;;;;;4.40;99.90;;;;;;5075877;28;19916;-91
2023/03/09 11:38:29;;;;;;;;;;;4.40;99.90;;;;;;5067695;28;19904;-90
2023/03/09 11:41:03;;;;;;;;;;;4.40;99.90;;;;;;5076200;28;19908;-87
2023/03/09 11:43:34;;;;;;;;;;;4.40;99.90;;;;;;5066955;28;19908;-90
2023/03/09 11:46:22;;;;;;;;;;;4.40;99.90;;;;;;5059697;28;20003;-87
2023/03/09 11:52:06;;;;;;;;;;;4.50;99.90;;;;;;5097688;28;19910;-87
2023/03/09 11:54:38;;;;;;;;;;;4.50;99.90;;;;;;5067277;28;19915;-89
2023/03/09 11:57:40;;;;;;;;;;;;;;;;;;;;;
2023/03/09 12:00:08;;;;;;;;;;;4.50;99.90;;;;;;5073925;28;19912;-91
2023/03/09 12:02:53;;;;;;;;;;;4.50;99.90;;;;;;5079813;28;19908;-87
2023/03/09 12:05:18;;;;;;;;;;;4.50;99.90;;;;;;5088966;28;19905;-88
2023/03/09 12:07:54;;;;;;;;;;;4.50;99.90;;;;;;5070353;28;19975;-89
2023/03/09 12:10:25;;;;;;;;;;;4.50;99.90;;;;;;5080265;28;19904;-88
2023/03/09 12:12:57;;;;;;;;;;;4.50;99.90;;;;;;5098066;28;19911;-89
2023/03/09 12:15:22;;;;;;;;;;;4.50;99.90;;;;;;5079366;28;19935;-88
2023/03/09 12:17:53;;;;;;;;;;;4.50;99.90;;;;;;5073001;28;19911;-87
2023/03/09 12:20:33;;;;;;;;;;;4.50;99.90;;;;;;5061380;28;20416;-89
2023/03/09 12:22:58;;;;;;;;;;;4.50;99.90;;;;;;5055665;28;19905;-87
2023/03/09 12:25:25;;;;;;;;;;;4.40;99.90;;;;;;5070006;28;19911;-87
2023/03/09 12:27:56;;;;;;;;;;;4.50;99.90;;;;;;5072608;28;19912;-91
2023/03/09 12:30:24;;;;;;;;;;;4.50;99.90;;;;;;5082670;28;19904;-88
2023/03/09 12:32:50;;;;;;;;;;;4.40;99.90;;;;;;5064933;28;19909;-87
2023/03/09 12:35:19;;;;;;;;;;;4.40;99.90;;;;;;5056331;28;19917;-89
2023/03/09 12:37:44;;;;;;;;;;;4.40;99.90;;;;;;5046202;28;19916;-88
2023/03/09 12:40:16;;;;;;;;;;;4.40;99.90;;;;;;5041313;28;19913;-90
2023/03/09 12:42:46;;;;;;;;;;;4.40;99.90;;;;;;5038785;28;20316;-89
2023/03/09 12:45:14;;;;;;;;;;;4.40;99.90;;;;;;5053223;28;19912;-91
2023/03/09 12:47:48;;;;;;;;;;;4.40;99.90;;;;;;5045904;28;19905;-88
2023/03/09 12:50:20;;;;;;;;;;;4.40;99.90;;;;;;5059026;28;19909;-87
2023/03/09 12:53:00;;;;;;;;;;;4.40;99.90;;;;;;5049386;28;19909;-89
2023/03/09 12:55:48;;;;;;;;;;;4.40;99.90;;;;;;5053554;28;19988;-89
2023/03/09 12:58:25;;;;;;;;;;;4.30;99.90;;;;;;5071060;28;20308;-88
2023/03/09 13:01:08;;;;;;;;;;;4.30;99.90;;;;;;5045959;28;19912;-87
2023/03/09 13:03:40;;;;;;;;;;;4.40;99.90;;;;;;5041038;28;19970;-87
2023/03/09 13:06:20;;;;;;;;;;;4.40;99.90;;;;;;5044499;28;20352;-89
2023/03/09 13:08:49;;;;;;;;;;;4.40;99.90;;;;;;5041492;28;19996;-88
2023/03/09 13:11:24;;;;;;;;;;;4.40;99.90;;;;;;5043976;28;19916;-88
2023/03/09 13:13:56;;;;;;;;;;;4.40;99.90;;;;;;5043105;28;19919;-91
2023/03/09 13:16:31;;;;;;;;;;;4.40;99.90;;;;;;5044587;28;19909;-88
2023/03/09 13:19:17;;;;;;;;;;;4.50;99.90;;;;;;5073839;28;19912;-86
2023/03/09 13:21:48;;;;;;;;;;;4.50;99.90;;;;;;5047801;28;19927;-86
2023/03/09 13:24:25;;;;;;;;;;;4.50;99.90;;;;;;5041052;28;19904;-90
2023/03/09 13:26:53;;;;;;;;;;;4.50;99.90;;;;;;5039084;28;19912;-87
2023/03/09 13:29:21;;;;;;;;;;;4.50;99.90;;;;;;5044867;28;19904;-88
2023/03/09 13:31:47;;;;;;;;;;;4.50;99.90;;;;;;5038864;28;19919;-88
2023/03/09 13:34:19;;;;;;;;;;;4.50;99.90;;;;;;5063429;28;19916;-89
2023/03/09 13:36:45;;;;;;;;;;;4.50;99.90;;;;;;5070489;28;19904;-88
2023/03/09 13:39:16;;;;;;;;;;;4.60;99.90;;;;;;5074745;28;19965;-92
2023/03/09 13:41:52;;;;;;;;;;;4.60;99.90;;;;;;5077460;28;19912;-87
2023/03/09 13:44:23;;;;;;;;;;;4.60;99.90;;;;;;5076942;28;19900;-87
2023/03/09 13:46:49;;;;;;;;;;;4.60;99.90;;;;;;5071963;28;19916;-87
2023/03/09 13:49:31;;;;;;;;;;;4.60;99.90;;;;;;5072009;28;19919;-87
2023/03/09 13:51:58;;;;;;;;;;;4.60;99.90;;;;;;5073735;28;19911;-87
2023/03/09 13:54:24;;;;;;;;;;;4.60;99.90;;;;;;5065323;28;19908;-88
2023/03/09 13:56:57;;;;;;;;;;;4.60;99.90;;;;;;5053079;28;19908;-87
2023/03/09 13:59:25;;;;;;;;;;;4.60;99.90;;;;;;5055763;28;20007;-90
2023/03/09 14:01:58;;;;;;;;;;;4.60;99.90;;;;;;5102491;28;20002;-90
2023/03/09 14:04:24;;;;;;;;;;;4.60;99.90;;;;;;5072902;28;19904;-88
2023/03/09 14:06:56;;;;;;;;;;;4.60;99.90;;;;;;5063478;28;19908;-86
2023/03/09 14:09:38;;;;;;;;;;;4.60;99.90;;;;;;5065288;28;19911;-88
2023/03/09 14:12:03;;;;;;;;;;;4.60;99.90;;;;;;5083130;28;19962;-88
2023/03/09 14:14:29;;;;;;;;;;;4.60;99.90;;;;;;5095196;28;19896;-88
2023/03/09 14:17:26;;;;;;;;;;;4.50;99.90;;;;;;5103524;28;19896;-91
2023/03/09 14:19:56;;;;;;;;;;;4.60;99.90;;;;;;5083011;28;19907;-89
2023/03/09 14:22:42;;;;;;;;;;;4.60;99.90;;;;;;5095621;28;19900;-91
2023/03/09 14:25:40;;;;;;;;;;;4.60;99.90;;;;;;5075005;28;19954;-89
2023/03/09 14:28:22;;;;;;;;;;;4.60;99.90;;;;;;5037146;28;19908;-88
2023/03/09 14:30:48;;;;;;;;;;;4.60;99.90;;;;;;5075035;28;19904;-89
2023/03/09 14:33:33;;;;;;;;;;;4.60;99.90;;;;;;5066604;28;20383;-90
2023/03/09 14:36:15;;;;;;;;;;;4.60;99.90;;;;;;5049956;28;20006;-88
2023/03/09 14:38:50;;;;;;;;;;;4.70;99.90;;;;;;5063734;28;19950;-88
2023/03/09 14:41:18;;;;;;;;;;;4.60;99.90;;;;;;5047782;28;19912;-87
2023/03/09 14:43:44;;;;;;;;;;;4.70;99.90;;;;;;5047614;28;19904;-87